createdAt,value
2019-01-17T00:01:37.158Z,98637.92
2019-01-17T00:05:05.207Z,98636.20
2019-01-17T00:08:26.696Z,98635.98
2019-01-17T00:11:44.035Z,98644.48
2019-01-17T00:15:06.572Z,98637.05
2019-01-17T00:18:22.391Z,98636.70
2019-01-17T00:21:57.225Z,98638.46
2019-01-17T00:25:28.169Z,98640.28
2019-01-17T00:28:56.721Z,98648.14
2019-01-17T00:32:20.350Z,98648.16
2019-01-17T00:35:43.222Z,98657.17
2019-01-17T00:39:18.250Z,98644.33
2019-01-17T00:42:39.357Z,98637.03
2019-01-17T00:46:00.856Z,98634.20
2019-01-17T00:49:24.436Z,98633.92
2019-01-17T00:53:00.870Z,98633.57
2019-01-17T00:56:36.158Z,98636.16
2019-01-17T01:00:18.450Z,98636.91
2019-01-17T01:03:53.402Z,98636.77
2019-01-17T01:07:28.609Z,98627.22
2019-01-17T01:11:10.556Z,98635.00
2019-01-17T01:14:46.822Z,98625.34
2019-01-17T01:18:21.847Z,98630.11
2019-01-17T01:21:44.587Z,98632.59
2019-01-17T01:25:19.820Z,98637.56
2019-01-17T01:28:55.059Z,98630.86
2019-01-17T01:32:37.318Z,98637.30
2019-01-17T01:36:12.003Z,98647.41
2019-01-17T01:39:47.380Z,98618.44
2019-01-17T01:43:29.641Z,98612.20
2019-01-17T01:46:57.060Z,98648.85
2019-01-17T01:50:39.046Z,98650.95
2019-01-17T01:53:54.631Z,98654.14
2019-01-17T01:57:17.278Z,98657.11
2019-01-17T02:00:32.467Z,98664.03
2019-01-17T02:03:54.927Z,98664.53
2019-01-17T02:07:10.059Z,98655.66
2019-01-17T02:10:32.449Z,98657.92
2019-01-17T02:13:48.419Z,98664.78
2019-01-17T02:17:04.447Z,98662.06
2019-01-17T02:20:27.191Z,98669.13
2019-01-17T02:23:42.693Z,98580.94
2019-01-17T02:27:05.180Z,98684.95
2019-01-17T02:30:20.711Z,98688.53
2019-01-17T02:33:43.421Z,98684.58
2019-01-17T02:37:01.283Z,98647.52
2019-01-17T02:40:24.015Z,98689.73
2019-01-17T02:43:39.519Z,98601.58
2019-01-17T02:46:54.658Z,98699.50
2019-01-17T02:50:10.077Z,98660.14
2019-01-17T02:53:25.449Z,98691.37
2019-01-17T02:56:47.831Z,98682.39
2019-01-17T03:00:12.557Z,98698.48
2019-01-17T03:03:28.020Z,98703.02
2019-01-17T03:06:43.398Z,98691.63
2019-01-17T03:10:09.551Z,98693.00
2019-01-17T03:13:24.779Z,98697.33
2019-01-17T03:16:47.494Z,98689.87
2019-01-17T03:20:03.152Z,98680.01
2019-01-17T03:23:25.540Z,98690.27
2019-01-17T03:26:41.149Z,98684.03
2019-01-17T03:30:06.211Z,98638.34
2019-01-17T03:33:23.793Z,98673.96
2019-01-17T03:36:46.478Z,98683.05
2019-01-17T03:40:02.040Z,98683.95
2019-01-17T03:43:24.528Z,98659.44
2019-01-17T03:46:40.387Z,98653.69
2019-01-17T03:50:16.027Z,98596.44
2019-01-17T03:53:39.002Z,98655.68
2019-01-17T03:56:54.963Z,98657.47
2019-01-17T04:04:15.497Z,98672.73
2019-01-17T04:07:33.545Z,98623.56
2019-01-17T04:10:55.928Z,98656.99
2019-01-17T04:14:11.432Z,98671.33
2019-01-17T04:17:33.839Z,98674.55
2019-01-17T04:20:49.073Z,98672.80
2019-01-17T04:24:11.456Z,98599.39
2019-01-17T04:27:26.548Z,98674.34
2019-01-17T04:30:42.319Z,98675.37
2019-01-17T04:34:04.703Z,98670.09
2019-01-17T04:37:20.043Z,98610.62
2019-01-17T04:40:35.251Z,98662.38
2019-01-17T04:43:57.632Z,98665.34
2019-01-17T04:47:13.024Z,98622.00
2019-01-17T04:50:35.417Z,98659.14
2019-01-17T04:53:52.569Z,98660.90
2019-01-17T04:57:14.960Z,98657.53
2019-01-17T05:00:30.587Z,98654.44
2019-01-17T05:07:19.810Z,98672.26
2019-01-17T05:10:34.974Z,98577.17
2019-01-17T05:13:57.741Z,98665.16
2019-01-17T05:17:13.472Z,98654.66
2019-01-17T05:20:35.900Z,98653.41
2019-01-17T05:23:51.125Z,98660.19
2019-01-17T05:27:13.553Z,98626.51
2019-01-17T05:30:29.620Z,98651.45
2019-01-17T05:33:51.998Z,98652.37
2019-01-17T05:37:07.063Z,98650.11
2019-01-17T05:40:29.437Z,98658.67
2019-01-17T05:43:45.131Z,98653.03
2019-01-17T05:47:00.614Z,98660.40
2019-01-17T05:50:16.451Z,98650.83
2019-01-17T05:53:32.108Z,98565.25
2019-01-17T05:56:54.816Z,98643.80
2019-01-17T06:00:11.964Z,98640.03
2019-01-17T06:03:34.695Z,98640.34
2019-01-17T06:06:50.104Z,98644.95
2019-01-17T06:10:06.460Z,98642.75
2019-01-17T06:13:29.252Z,98641.88
2019-01-17T06:16:45.183Z,98646.56
2019-01-17T06:20:21.912Z,98630.84
2019-01-17T06:23:44.299Z,98628.70
2019-01-17T06:26:59.629Z,98555.24
2019-01-17T06:30:22.339Z,98640.58
2019-01-17T06:33:38.406Z,98645.81
2019-01-17T06:37:00.887Z,98639.11
2019-01-17T06:40:23.608Z,98628.77
2019-01-17T06:43:46.630Z,98639.20
2019-01-17T06:47:01.759Z,98559.44
2019-01-17T06:50:24.534Z,98631.60
2019-01-17T06:53:40.478Z,98637.86
2019-01-17T06:57:02.860Z,98644.24
2019-01-17T07:00:18.397Z,98552.53
2019-01-17T07:03:40.776Z,98642.30
2019-01-17T07:06:55.964Z,98640.84
2019-01-17T07:10:18.797Z,98643.17
2019-01-17T07:13:34.438Z,98545.11
2019-01-17T07:16:57.164Z,98639.98
2019-01-17T07:20:13.267Z,98643.31
2019-01-17T07:23:35.687Z,98552.49
2019-01-17T07:26:51.719Z,98554.75
2019-01-17T07:30:16.727Z,98636.34
2019-01-17T07:33:32.466Z,98646.84
2019-01-17T07:36:54.828Z,98644.52
2019-01-17T07:40:10.340Z,98639.29
2019-01-17T07:43:25.431Z,98642.63
2019-01-17T07:46:40.697Z,98639.35
2019-01-17T07:49:56.047Z,98639.35
2019-01-17T07:53:18.446Z,98636.37
2019-01-17T07:56:33.976Z,98637.84
2019-01-17T07:59:49.388Z,98626.92
2019-01-17T08:03:12.175Z,98634.61
2019-01-17T08:06:27.718Z,98647.22
2019-01-17T08:09:42.936Z,98622.37
2019-01-17T08:13:05.682Z,98652.44
2019-01-17T08:16:21.072Z,98595.84
2019-01-17T08:19:43.572Z,98660.45
2019-01-17T08:22:59.215Z,98662.00
2019-01-17T08:26:14.683Z,98670.17
2019-01-17T08:29:37.835Z,98592.65
2019-01-17T08:32:53.323Z,98585.32
2019-01-17T08:36:15.726Z,98663.17
2019-01-17T08:39:30.687Z,98653.98
2019-01-17T08:42:46.138Z,98656.94
2019-01-17T08:46:03.037Z,98660.84
2019-01-17T08:49:25.406Z,98567.66
2019-01-17T08:52:40.728Z,98655.75
2019-01-17T08:59:39.986Z,98656.78
2019-01-17T09:02:56.394Z,98661.34
2019-01-17T09:06:19.065Z,98586.70
2019-01-17T09:09:34.160Z,98610.48
2019-01-17T09:16:38.397Z,98663.05
2019-01-17T09:20:00.811Z,98654.16
2019-01-17T09:23:16.746Z,98652.52
2019-01-17T09:26:39.186Z,98656.55
2019-01-17T09:29:55.304Z,98657.55
2019-01-17T09:33:18.070Z,98655.50
2019-01-17T09:36:33.799Z,98641.39
2019-01-17T09:39:56.503Z,98548.62
2019-01-17T09:43:12.490Z,98634.53
2019-01-17T09:46:35.143Z,98624.20
2019-01-17T09:49:50.299Z,98621.86
2019-01-17T09:53:12.684Z,98625.72
2019-01-17T09:56:27.842Z,98624.27
2019-01-17T09:59:50.265Z,98607.08
2019-01-17T10:03:05.622Z,98607.09
2019-01-17T10:06:28.025Z,98612.50
2019-01-17T10:09:43.405Z,98605.69
2019-01-17T10:13:06.094Z,98597.64
2019-01-17T10:21:12.955Z,98586.27
2019-01-17T10:24:48.904Z,98579.53
2019-01-17T10:28:50.284Z,98505.92
2019-01-17T10:32:25.390Z,98562.20
2019-01-17T10:36:00.547Z,98560.39
2019-01-17T10:40:02.165Z,98559.87
2019-01-17T10:43:41.940Z,98548.89
2019-01-17T10:47:43.229Z,98476.05
2019-01-17T10:51:44.862Z,98529.92
2019-01-17T11:03:03.439Z,98523.67
2019-01-17T11:06:22.000Z,98527.53
2019-01-17T11:10:23.286Z,98527.99
2019-01-17T11:13:57.946Z,98532.09
2019-01-17T11:17:59.460Z,98536.91
2019-01-17T11:26:15.813Z,98561.91
2019-01-17T11:29:35.032Z,98481.45
2019-01-17T11:33:30.754Z,98545.27
2019-01-17T11:37:05.976Z,98543.22
2019-01-17T11:41:07.273Z,98540.73
2019-01-17T11:44:42.197Z,98519.14
2019-01-17T11:56:47.072Z,98544.25
2019-01-17T12:00:48.742Z,98550.65
2019-01-17T12:04:17.630Z,98545.71
2019-01-17T12:07:40.123Z,98551.69
2019-01-17T12:10:56.083Z,98552.97
2019-01-17T12:14:11.156Z,98561.36
2019-01-17T12:21:08.553Z,98566.41
2019-01-17T12:24:24.461Z,98497.27
2019-01-17T12:31:23.097Z,98587.02
2019-01-17T12:34:38.463Z,98586.86
2019-01-17T12:37:55.481Z,98589.42
2019-01-17T12:41:11.911Z,98604.47
2019-01-17T12:44:27.217Z,98598.45
2019-01-17T12:47:49.748Z,98606.56
2019-01-17T12:51:05.705Z,98604.98
2019-01-17T12:54:21.420Z,98601.83
2019-01-17T13:01:20.078Z,98599.20
2019-01-17T13:04:35.580Z,98615.16
2019-01-17T13:07:57.969Z,98606.39
2019-01-17T13:11:13.396Z,98610.44
2019-01-17T13:14:36.463Z,98619.03
2019-01-17T13:17:51.860Z,98621.48
2019-01-17T13:21:08.153Z,98626.64
2019-01-17T13:24:30.838Z,98568.02
2019-01-17T13:27:46.955Z,98596.34
2019-01-17T13:31:03.058Z,98640.89
2019-01-17T13:34:25.431Z,98645.66
2019-01-17T13:37:40.628Z,98661.90
2019-01-17T13:41:03.030Z,98650.56
2019-01-17T13:44:18.841Z,98652.66
2019-01-17T13:47:34.384Z,98667.88
2019-01-17T13:50:57.050Z,98666.16
2019-01-17T13:54:08.049Z,98684.28
2019-01-17T13:57:23.283Z,98680.35
2019-01-17T14:00:45.678Z,98689.16
2019-01-17T14:04:00.903Z,98698.61
2019-01-17T14:07:23.319Z,98708.39
2019-01-17T14:10:39.050Z,98715.98
2019-01-17T14:14:01.420Z,98713.23
2019-01-17T14:17:16.892Z,98732.29
2019-01-17T14:20:39.286Z,98740.59
2019-01-17T14:23:54.729Z,98754.41
2019-01-17T14:27:17.119Z,98761.94
2019-01-17T14:30:32.647Z,98765.98
2019-01-17T14:33:55.325Z,98775.30
2019-01-17T14:37:11.098Z,98784.95
2019-01-17T14:40:26.569Z,98729.20
2019-01-17T14:43:49.329Z,98812.67
2019-01-17T14:47:04.870Z,98808.77
2019-01-17T14:50:29.220Z,98820.56
2019-01-17T14:53:44.193Z,98827.28
2019-01-17T14:56:47.444Z,98739.58
2019-01-17T15:00:13.531Z,98843.55
2019-01-17T15:03:29.519Z,98846.05
2019-01-17T15:06:52.024Z,98849.16
2019-01-17T15:10:11.302Z,98851.92
2019-01-17T15:13:34.470Z,98864.73
2019-01-17T15:16:50.346Z,98875.70
2019-01-17T15:20:15.147Z,98878.83
2019-01-17T15:23:31.212Z,98882.17
2019-01-17T15:26:53.620Z,98883.13
2019-01-17T15:30:10.245Z,98885.58
2019-01-17T15:33:32.663Z,98807.09
2019-01-17T15:36:48.244Z,98895.15
2019-01-17T15:40:05.235Z,98900.01
2019-01-17T15:43:27.620Z,98865.12
2019-01-17T15:46:42.745Z,98934.06
2019-01-17T15:50:05.539Z,98926.02
2019-01-17T15:53:21.013Z,98936.34
2019-01-17T15:56:43.753Z,98950.95
2019-01-17T15:59:59.513Z,98946.60
2019-01-17T16:03:14.787Z,98956.88
2019-01-17T16:06:37.623Z,98957.52
2019-01-17T16:09:53.619Z,98959.70
2019-01-17T16:13:16.617Z,98961.73
2019-01-17T16:16:32.271Z,98973.48
2019-01-17T16:19:54.662Z,98980.12
2019-01-17T16:23:09.952Z,98986.81
2019-01-17T16:26:32.316Z,98973.16
2019-01-17T16:29:47.383Z,98994.18
2019-01-17T16:33:10.488Z,99000.86
2019-01-17T16:36:25.974Z,99008.97
2019-01-17T16:39:41.705Z,99001.66
2019-01-17T16:42:57.821Z,99001.95
2019-01-17T16:46:13.604Z,99008.91
2019-01-17T16:49:37.085Z,99021.70
2019-01-17T16:52:52.944Z,98923.23
2019-01-17T16:56:08.131Z,99033.94
2019-01-17T16:59:30.828Z,99045.20
2019-01-17T17:02:46.901Z,99040.61
2019-01-17T17:06:03.526Z,99050.20
2019-01-17T17:09:26.596Z,99053.47
2019-01-17T17:12:42.165Z,98993.14
2019-01-17T17:16:04.559Z,99068.83
2019-01-17T17:19:22.651Z,99067.95
2019-01-17T17:22:45.130Z,99073.03
2019-01-17T17:26:00.527Z,99061.19
2019-01-17T17:29:22.893Z,99040.39
2019-01-17T17:32:38.648Z,99000.55
2019-01-17T17:36:01.250Z,99100.30
2019-01-17T17:39:16.750Z,99049.62
2019-01-17T17:42:33.051Z,99108.91
2019-01-17T17:45:55.803Z,99126.91
2019-01-17T17:49:11.613Z,99123.04
2019-01-17T17:52:27.574Z,99130.89
2019-01-17T17:55:49.958Z,99081.06
2019-01-17T17:59:05.330Z,99128.89
2019-01-17T18:02:27.007Z,99049.53
2019-01-17T18:05:49.384Z,99093.00
2019-01-17T18:09:06.405Z,99134.73
2019-01-17T18:12:28.976Z,99129.02
2019-01-17T18:15:44.408Z,99144.16
2019-01-17T18:18:59.738Z,99074.00
2019-01-17T18:22:22.123Z,99165.96
2019-01-17T18:25:37.324Z,99147.80
2019-01-17T18:28:52.392Z,99171.73
2019-01-17T18:32:15.182Z,99168.19
2019-01-17T18:35:31.041Z,99176.09
2019-01-17T18:38:46.186Z,99187.54
2019-01-17T18:42:01.263Z,99105.70
2019-01-17T18:45:17.414Z,99199.05
2019-01-17T18:48:39.807Z,99200.45
2019-01-17T18:51:55.691Z,99181.42
2019-01-17T18:55:11.172Z,99210.87
2019-01-17T18:58:33.883Z,99211.62
2019-01-17T19:01:50.117Z,99227.77
2019-01-17T19:05:12.497Z,99237.36
2019-01-17T19:08:28.248Z,99242.66
2019-01-17T19:11:43.816Z,99183.39
2019-01-17T19:15:09.457Z,99265.02
2019-01-17T19:18:24.496Z,99271.64
2019-01-17T19:21:39.952Z,99275.36
2019-01-17T19:25:14.509Z,99284.16
2019-01-17T19:28:36.905Z,99222.53
2019-01-17T19:31:52.593Z,99281.50
2019-01-17T19:35:15.728Z,99265.03
2019-01-17T19:38:32.118Z,99275.84
2019-01-17T19:41:54.824Z,99315.91
2019-01-17T19:45:20.046Z,99318.09
2019-01-17T19:48:42.487Z,99328.98
2019-01-17T19:51:58.563Z,99337.63
2019-01-17T19:55:20.957Z,99299.19
2019-01-17T19:58:36.933Z,99279.61
2019-01-17T20:01:59.537Z,99354.69
2019-01-17T20:05:15.790Z,99366.38
2019-01-17T20:08:39.715Z,99375.25
2019-01-17T20:11:55.661Z,99371.29
2019-01-17T20:15:19.492Z,99381.80
2019-01-17T20:18:37.203Z,99394.03
2019-01-17T20:22:00.262Z,99406.30
2019-01-17T20:25:15.743Z,99338.61
2019-01-17T20:28:39.210Z,99410.70
2019-01-17T20:31:55.307Z,99421.09
2019-01-17T20:35:19.632Z,99423.25
2019-01-17T20:38:36.798Z,99433.34
2019-01-17T20:41:53.061Z,99433.39
2019-01-17T20:45:10.033Z,99440.69
2019-01-17T20:48:34.864Z,99391.22
2019-01-17T20:51:51.287Z,99391.27
2019-01-17T20:55:14.992Z,99424.30
2019-01-17T20:58:32.953Z,99462.13
2019-01-17T21:01:57.688Z,99479.19
2019-01-17T21:05:22.678Z,99482.25
2019-01-17T21:08:38.445Z,99477.94
2019-01-17T21:11:53.862Z,99501.00
2019-01-17T21:15:16.277Z,99493.59
2019-01-17T21:18:19.342Z,99426.22
2019-01-17T21:21:34.449Z,99506.20
2019-01-17T21:24:56.956Z,99510.16
2019-01-17T21:28:12.411Z,99517.56
2019-01-17T21:31:27.472Z,99526.28
2019-01-17T21:34:50.235Z,99524.99
2019-01-17T21:38:06.385Z,99520.20
2019-01-17T21:41:21.452Z,99545.47
2019-01-17T21:44:36.711Z,99541.55
2019-01-17T21:48:00.086Z,99555.94
2019-01-17T21:51:15.758Z,99553.31
2019-01-17T21:54:38.444Z,99568.11
2019-01-17T21:57:54.280Z,99578.59
2019-01-17T22:01:17.088Z,99565.06
2019-01-17T22:04:32.789Z,99522.40
2019-01-17T22:07:48.147Z,99583.80
2019-01-17T22:11:11.022Z,99540.27
2019-01-17T22:14:26.337Z,99508.05
2019-01-17T22:17:49.732Z,99575.98
2019-01-17T22:21:05.659Z,99606.02
2019-01-17T22:24:28.140Z,99604.27
2019-01-17T22:27:43.525Z,99602.11
2019-01-17T22:31:05.913Z,99614.72
2019-01-17T22:34:21.600Z,99621.70
2019-01-17T22:37:44.321Z,99600.34
2019-01-17T22:41:00.616Z,99589.47
2019-01-17T22:44:15.696Z,99630.41
2019-01-17T22:47:38.072Z,99636.51
2019-01-17T22:50:53.410Z,99629.11
2019-01-17T22:54:15.970Z,99646.95
2019-01-17T22:57:31.491Z,99651.70
2019-01-17T23:04:28.640Z,99646.50
2019-01-17T23:07:44.601Z,99662.59
2019-01-17T23:11:07.775Z,99663.89
2019-01-17T23:14:21.512Z,99670.86
2019-01-17T23:17:43.911Z,99675.70
2019-01-17T23:20:59.553Z,99682.22
2019-01-17T23:24:22.214Z,99661.31
2019-01-17T23:27:38.250Z,99688.78
2019-01-17T23:31:01.052Z,99691.39
2019-01-17T23:34:16.908Z,99689.63
2019-01-17T23:37:39.308Z,99701.83
2019-01-17T23:40:55.060Z,99706.22
2019-01-17T23:44:17.733Z,99708.39
2019-01-17T23:47:33.504Z,99724.95
2019-01-17T23:50:55.874Z,99716.25
2019-01-17T23:54:11.237Z,99723.64
2019-01-17T23:57:33.736Z,99723.62
